Terminal Aerodrome Forecast
Issued by NWS Des Moines, IA

Home | Current Version | Previous Version | Text Only | Print | Product List | Glossary On
Versions: 1 2 3 4 5 6 7 8 9 10 11 12 13 14 15 16 17 18 19 20 21 22 23 24 25 26 27 28 29 30 31 32 33 34 35 36 37 38 39 40 41 42 43 44 45 46 47 48 49 50
000
FTUS43 KDMX 242332
TAFALO
TAF
KALO 242332Z 2500/2524 15011KT 1SM -RA BR OVC004
     FM250100 15007KT 1/2SM SN OVC003
     FM250200 25011KT 5SM -SN BR OVC006
     FM250400 25009G17KT P6SM OVC026
     FM250500 27013G22KT P6SM BKN040
     FM251000 26016G26KT P6SM SCT140=

USA.gov is the U.S. government's official web portal to all federal, state and local government web resources and services.